sensor_id;sensor_type;location;lat;lon;timestamp;pressure;altitude;pressure_sealevel;temperature;humidity
15750;BME280;7976;52.526;13.326;2023-08-06T00:02:17;100361.63;;;18.84;87.83
15750;BME280;7976;52.526;13.326;2023-08-06T00:04:44;100361.63;;;18.84;88.45
15750;BME280;7976;52.526;13.326;2023-08-06T00:07:11;100364.41;;;18.82;88.50
15750;BME280;7976;52.526;13.326;2023-08-06T00:09:40;100365.22;;;18.83;88.65
15750;BME280;7976;52.526;13.326;2023-08-06T00:12:07;100363.41;;;18.83;89.03
15750;BME280;7976;52.526;13.326;2023-08-06T00:14:34;100358.13;;;18.83;88.70
15750;BME280;7976;52.526;13.326;2023-08-06T00:17:04;100349.44;;;18.81;88.75
15750;BME280;7976;52.526;13.326;2023-08-06T00:19:34;100346.78;;;18.81;89.54
15750;BME280;7976;52.526;13.326;2023-08-06T00:22:01;100343.28;;;18.81;89.53
15750;BME280;7976;52.526;13.326;2023-08-06T00:24:31;100332.78;;;18.79;89.22
15750;BME280;7976;52.526;13.326;2023-08-06T00:26:59;100335.31;;;18.81;89.44
15750;BME280;7976;52.526;13.326;2023-08-06T00:29:26;100338.09;;;18.79;89.33
15750;BME280;7976;52.526;13.326;2023-08-06T00:31:54;100324.13;;;18.77;89.40
15750;BME280;7976;52.526;13.326;2023-08-06T00:34:21;100335.56;;;18.77;89.54
15750;BME280;7976;52.526;13.326;2023-08-06T00:36:47;100339.31;;;18.75;89.53
15750;BME280;7976;52.526;13.326;2023-08-06T00:39:14;100331.34;;;18.75;89.68
15750;BME280;7976;52.526;13.326;2023-08-06T00:41:40;100328.81;;;18.73;89.48
15750;BME280;7976;52.526;13.326;2023-08-06T00:44:09;100324.81;;;18.68;89.46
15750;BME280;7976;52.526;13.326;2023-08-06T00:46:36;100333.75;;;18.67;89.85
15750;BME280;7976;52.526;13.326;2023-08-06T00:49:04;100336.03;;;18.71;89.72
15750;BME280;7976;52.526;13.326;2023-08-06T00:51:32;100326.28;;;18.72;89.38
15750;BME280;7976;52.526;13.326;2023-08-06T00:53:59;100325.81;;;18.67;89.67
15750;BME280;7976;52.526;13.326;2023-08-06T00:56:27;100328.34;;;18.68;89.48
15750;BME280;7976;52.526;13.326;2023-08-06T00:58:54;100322.19;;;18.68;89.56
15750;BME280;7976;52.526;13.326;2023-08-06T01:01:23;100324.81;;;18.68;89.47
15750;BME280;7976;52.526;13.326;2023-08-06T01:03:50;100318.66;;;18.67;89.78
15750;BME280;7976;52.526;13.326;2023-08-06T01:06:27;100323.97;;;18.67;89.55
15750;BME280;7976;52.526;13.326;2023-08-06T01:09:09;100316.13;;;18.66;89.34
15750;BME280;7976;52.526;13.326;2023-08-06T01:11:52;100314.47;;;18.65;89.81
15750;BME280;7976;52.526;13.326;2023-08-06T01:14:41;100316.38;;;18.63;89.29
15750;BME280;7976;52.526;13.326;2023-08-06T01:17:13;100310.22;;;18.62;89.44
15750;BME280;7976;52.526;13.326;2023-08-06T01:19:40;100312.16;;;18.60;89.43
15750;BME280;7976;52.526;13.326;2023-08-06T01:22:09;100314.72;;;18.62;89.46
15750;BME280;7976;52.526;13.326;2023-08-06T01:24:36;100307.69;;;18.61;89.19
15750;BME280;7976;52.526;13.326;2023-08-06T01:27:11;100293.72;;;18.59;89.36
15750;BME280;7976;52.526;13.326;2023-08-06T01:29:49;100292.28;;;18.55;89.47
15750;BME280;7976;52.526;13.326;2023-08-06T01:32:19;100295.06;;;18.53;89.20
15750;BME280;7976;52.526;13.326;2023-08-06T01:34:48;100299.50;;;18.53;89.36
15750;BME280;7976;52.526;13.326;2023-08-06T01:37:18;100296.84;;;18.53;89.24
15750;BME280;7976;52.526;13.326;2023-08-06T01:39:45;100279.28;;;18.52;89.62
15750;BME280;7976;52.526;13.326;2023-08-06T01:42:12;100276.00;;;18.48;89.47
15750;BME280;7976;52.526;13.326;2023-08-06T01:44:39;100277.56;;;18.51;89.36
15750;BME280;7976;52.526;13.326;2023-08-06T01:47:06;100274.91;;;18.51;89.41
15750;BME280;7976;52.526;13.326;2023-08-06T01:49:33;100263.56;;;18.49;89.41
15750;BME280;7976;52.526;13.326;2023-08-06T01:52:03;100267.44;;;18.45;89.88
15750;BME280;7976;52.526;13.326;2023-08-06T01:54:33;100258.88;;;18.41;89.81
15750;BME280;7976;52.526;13.326;2023-08-06T01:57:00;100258.88;;;18.41;89.49
15750;BME280;7976;52.526;13.326;2023-08-06T01:59:27;100263.94;;;18.44;89.99
15750;BME280;7976;52.526;13.326;2023-08-06T02:01:53;100263.09;;;18.44;89.57
15750;BME280;7976;52.526;13.326;2023-08-06T02:04:20;100259.72;;;18.42;89.84
15750;BME280;7976;52.526;13.326;2023-08-06T02:06:47;100258.03;;;18.41;90.34
15750;BME280;7976;52.526;13.326;2023-08-06T02:09:14;100259.91;;;18.39;90.15
15750;BME280;7976;52.526;13.326;2023-08-06T02:11:42;100261.13;;;18.35;90.38
15750;BME280;7976;52.526;13.326;2023-08-06T02:14:09;100261.00;;;18.36;90.23
15750;BME280;7976;52.526;13.326;2023-08-06T02:16:38;100254.00;;;18.35;90.21
15750;BME280;7976;52.526;13.326;2023-08-06T02:19:05;100263.78;;;18.35;90.51
15750;BME280;7976;52.526;13.326;2023-08-06T02:21:32;100258.72;;;18.32;90.48
15750;BME280;7976;52.526;13.326;2023-08-06T02:23:59;100255.34;;;18.30;90.75
15750;BME280;7976;52.526;13.326;2023-08-06T02:26:26;100253.63;;;18.29;90.53
15750;BME280;7976;52.526;13.326;2023-08-06T02:28:56;100249.31;;;18.28;90.58
15750;BME280;7976;52.526;13.326;2023-08-06T02:31:23;100243.53;;;18.23;91.21
15750;BME280;7976;52.526;13.326;2023-08-06T02:33:50;100239.91;;;18.24;91.16
15750;BME280;7976;52.526;13.326;2023-08-06T02:36:19;100232.91;;;18.23;91.70
15750;BME280;7976;52.526;13.326;2023-08-06T02:38:46;100235.44;;;18.24;91.85
15750;BME280;7976;52.526;13.326;2023-08-06T02:41:13;100232.06;;;18.22;92.06
15750;BME280;7976;52.526;13.326;2023-08-06T02:43:40;100222.56;;;18.20;92.00
15750;BME280;7976;52.526;13.326;2023-08-06T02:46:08;100210.50;;;18.16;91.87
15750;BME280;7976;52.526;13.326;2023-08-06T02:48:35;100220.84;;;18.19;92.19
15750;BME280;7976;52.526;13.326;2023-08-06T02:51:02;100212.22;;;18.17;92.20
15750;BME280;7976;52.526;13.326;2023-08-06T02:53:31;100220.25;;;18.15;92.80
15750;BME280;7976;52.526;13.326;2023-08-06T02:56:00;100218.44;;;18.16;92.65
15750;BME280;7976;52.526;13.326;2023-08-06T02:58:37;100209.78;;;18.14;92.54
15750;BME280;7976;52.526;13.326;2023-08-06T03:01:14;100209.06;;;18.12;93.08
15750;BME280;7976;52.526;13.326;2023-08-06T03:03:48;100198.00;;;18.07;93.12
15750;BME280;7976;52.526;13.326;2023-08-06T03:06:21;100212.66;;;18.11;93.50
15750;BME280;7976;52.526;13.326;2023-08-06T03:08:52;100217.97;;;18.11;93.27
15750;BME280;7976;52.526;13.326;2023-08-06T03:11:19;100208.34;;;18.10;93.62
15750;BME280;7976;52.526;13.326;2023-08-06T03:13:48;100216.28;;;18.10;93.54
15750;BME280;7976;52.526;13.326;2023-08-06T03:16:17;100215.56;;;18.08;93.72
15750;BME280;7976;52.526;13.326;2023-08-06T03:18:44;100208.47;;;18.08;93.88
15750;BME280;7976;52.526;13.326;2023-08-06T03:21:11;100204.22;;;18.06;93.76
15750;BME280;7976;52.526;13.326;2023-08-06T03:23:38;100198.19;;;18.04;93.96
15750;BME280;7976;52.526;13.326;2023-08-06T03:26:06;100202.06;;;18.00;93.65
15750;BME280;7976;52.526;13.326;2023-08-06T03:28:33;100194.31;;;17.97;94.31
15750;BME280;7976;52.526;13.326;2023-08-06T03:31:01;100196.28;;;17.95;94.06
15750;BME280;7976;52.526;13.326;2023-08-06T03:33:36;100194.44;;;17.95;94.67
15750;BME280;7976;52.526;13.326;2023-08-06T03:36:07;100191.41;;;17.89;94.52
15750;BME280;7976;52.526;13.326;2023-08-06T03:38:35;100184.69;;;17.85;94.81
15750;BME280;7976;52.526;13.326;2023-08-06T03:41:05;100180.34;;;17.84;94.97
15750;BME280;7976;52.526;13.326;2023-08-06T03:43:32;100168.31;;;17.80;95.45
15750;BME280;7976;52.526;13.326;2023-08-06T03:45:59;100174.53;;;17.79;95.69
15750;BME280;7976;52.526;13.326;2023-08-06T03:48:26;100170.22;;;17.78;95.72
15750;BME280;7976;52.526;13.326;2023-08-06T03:50:54;100169.50;;;17.76;95.94
15750;BME280;7976;52.526;13.326;2023-08-06T03:53:23;100166.34;;;17.71;95.87
15750;BME280;7976;52.526;13.326;2023-08-06T03:55:50;100163.81;;;17.69;96.15
15750;BME280;7976;52.526;13.326;2023-08-06T03:58:17;100158.66;;;17.68;96.18
15750;BME280;7976;52.526;13.326;2023-08-06T04:00:44;100156.94;;;17.67;96.49
15750;BME280;7976;52.526;13.326;2023-08-06T04:03:11;100157.28;;;17.62;96.24
15750;BME280;7976;52.526;13.326;2023-08-06T04:05:37;100152.25;;;17.59;96.51
15750;BME280;7976;52.526;13.326;2023-08-06T04:08:06;100157.28;;;17.62;97.11
15750;BME280;7976;52.526;13.326;2023-08-06T04:10:33;100145.97;;;17.60;96.85
15750;BME280;7976;52.526;13.326;2023-08-06T04:13:00;100146.09;;;17.59;97.11
15750;BME280;7976;52.526;13.326;2023-08-06T04:15:29;100139.13;;;17.58;97.10
15750;BME280;7976;52.526;13.326;2023-08-06T04:17:56;100141.91;;;17.56;97.54
15750;BME280;7976;52.526;13.326;2023-08-06T04:20:24;100138.41;;;17.56;97.39
15750;BME280;7976;52.526;13.326;2023-08-06T04:22:53;100132.50;;;17.52;97.18
15750;BME280;7976;52.526;13.326;2023-08-06T04:25:22;100134.28;;;17.51;97.19
15750;BME280;7976;52.526;13.326;2023-08-06T04:27:50;100135.25;;;17.50;97.42
15750;BME280;7976;52.526;13.326;2023-08-06T04:30:17;100130.06;;;17.49;97.44
15750;BME280;7976;52.526;13.326;2023-08-06T04:32:44;100125.63;;;17.49;97.39
15750;BME280;7976;52.526;13.326;2023-08-06T04:35:11;100130.94;;;17.49;97.42
15750;BME280;7976;52.526;13.326;2023-08-06T04:37:37;100120.34;;;17.49;97.32
15750;BME280;7976;52.526;13.326;2023-08-06T04:40:05;100115.75;;;17.51;97.33
15750;BME280;7976;52.526;13.326;2023-08-06T04:42:34;100121.03;;;17.51;97.34
15750;BME280;7976;52.526;13.326;2023-08-06T04:45:01;100103.38;;;17.52;97.24
15750;BME280;7976;52.526;13.326;2023-08-06T04:47:28;100106.75;;;17.54;97.59
15750;BME280;7976;52.526;13.326;2023-08-06T04:49:55;100105.66;;;17.57;97.61
15750;BME280;7976;52.526;13.326;2023-08-06T04:52:22;100099.56;;;17.56;97.44
15750;BME280;7976;52.526;13.326;2023-08-06T04:54:53;100094.25;;;17.56;97.52
15750;BME280;7976;52.526;13.326;2023-08-06T04:57:20;100096.66;;;17.59;97.25
15750;BME280;7976;52.526;13.326;2023-08-06T04:59:49;100090.53;;;17.59;97.42
15750;BME280;7976;52.526;13.326;2023-08-06T05:02:16;100093.03;;;17.60;97.43
15750;BME280;7976;52.526;13.326;2023-08-06T05:04:42;100087.63;;;17.62;97.22
15750;BME280;7976;52.526;13.326;2023-08-06T05:07:10;100083.19;;;17.62;97.23
15750;BME280;7976;52.526;13.326;2023-08-06T05:09:37;100086.81;;;17.61;97.25
15750;BME280;7976;52.526;13.326;2023-08-06T05:12:05;100087.63;;;17.62;97.41
15750;BME280;7976;52.526;13.326;2023-08-06T05:14:32;100089.34;;;17.63;97.70
15750;BME280;7976;52.526;13.326;2023-08-06T05:17:01;100085.72;;;17.64;97.40
15750;BME280;7976;52.526;13.326;2023-08-06T05:19:30;100085.59;;;17.65;97.60
15750;BME280;7976;52.526;13.326;2023-08-06T05:21:56;100072.47;;;17.64;97.46
15750;BME280;7976;52.526;13.326;2023-08-06T05:24:23;100075.97;;;17.64;97.28
15750;BME280;7976;52.526;13.326;2023-08-06T05:26:50;100068.16;;;17.63;97.15
15750;BME280;7976;52.526;13.326;2023-08-06T05:29:17;100066.25;;;17.65;96.92
15750;BME280;7976;52.526;13.326;2023-08-06T05:31:44;100060.22;;;17.63;96.91
15750;BME280;7976;52.526;13.326;2023-08-06T05:34:12;100062.13;;;17.61;97.07
15750;BME280;7976;52.526;13.326;2023-08-06T05:36:39;100059.72;;;17.58;97.17
15750;BME280;7976;52.526;13.326;2023-08-06T05:39:06;100057.22;;;17.56;97.32
15750;BME280;7976;52.526;13.326;2023-08-06T05:41:33;100054.56;;;17.56;97.17
15750;BME280;7976;52.526;13.326;2023-08-06T05:43:59;100053.72;;;17.56;97.50
15750;BME280;7976;52.526;13.326;2023-08-06T05:46:26;100053.47;;;17.59;97.43
15750;BME280;7976;52.526;13.326;2023-08-06T05:48:53;100061.53;;;17.57;97.12
15750;BME280;7976;52.526;13.326;2023-08-06T05:51:22;100056.97;;;17.59;97.43
15750;BME280;7976;52.526;13.326;2023-08-06T05:53:49;100055.88;;;17.62;97.56
15750;BME280;7976;52.526;13.326;2023-08-06T05:56:16;100059.50;;;17.61;97.25
15750;BME280;7976;52.526;13.326;2023-08-06T05:58:43;100051.44;;;17.62;97.24
15750;BME280;7976;52.526;13.326;2023-08-06T06:01:10;100053.22;;;17.62;97.15
15750;BME280;7976;52.526;13.326;2023-08-06T06:03:36;100057.56;;;17.63;97.62
15750;BME280;7976;52.526;13.326;2023-08-06T06:06:03;100055.06;;;17.61;96.96
15750;BME280;7976;52.526;13.326;2023-08-06T06:08:31;100053.34;;;17.60;97.26
15750;BME280;7976;52.526;13.326;2023-08-06T06:10:59;100044.34;;;17.63;97.46
15750;BME280;7976;52.526;13.326;2023-08-06T06:13:26;100046.88;;;17.64;97.25
15750;BME280;7976;52.526;13.326;2023-08-06T06:15:56;100047.72;;;17.65;97.01
15750;BME280;7976;52.526;13.326;2023-08-06T06:18:23;100046.75;;;17.66;97.24
15750;BME280;7976;52.526;13.326;2023-08-06T06:20:50;100047.00;;;17.63;96.94
15750;BME280;7976;52.526;13.326;2023-08-06T06:23:17;100041.94;;;17.60;97.33
15750;BME280;7976;52.526;13.326;2023-08-06T06:25:48;100035.78;;;17.59;96.81
15750;BME280;7976;52.526;13.326;2023-08-06T06:28:17;100033.28;;;17.58;96.49
15750;BME280;7976;52.526;13.326;2023-08-06T06:30:44;100037.47;;;17.60;96.70
15750;BME280;7976;52.526;13.326;2023-08-06T06:33:11;100038.06;;;17.64;96.96
15750;BME280;7976;52.526;13.326;2023-08-06T06:35:37;100030.88;;;17.66;96.93
15750;BME280;7976;52.526;13.326;2023-08-06T06:38:04;100027.50;;;17.64;96.53
15750;BME280;7976;52.526;13.326;2023-08-06T06:40:31;100036.41;;;17.63;96.88
15750;BME280;7976;52.526;13.326;2023-08-06T06:43:00;100028.34;;;17.64;96.49
15750;BME280;7976;52.526;13.326;2023-08-06T06:45:26;100028.09;;;17.67;96.62
15750;BME280;7976;52.526;13.326;2023-08-06T06:47:53;100025.06;;;17.72;96.79
15750;BME280;7976;52.526;13.326;2023-08-06T06:50:20;100026.53;;;17.76;96.83
15750;BME280;7976;52.526;13.326;2023-08-06T06:52:47;100025.47;;;17.78;97.15
15750;BME280;7976;52.526;13.326;2023-08-06T06:55:14;100030.53;;;17.81;97.35
15750;BME280;7976;52.526;13.326;2023-08-06T06:57:41;100026.66;;;17.85;97.59
15750;BME280;7976;52.526;13.326;2023-08-06T07:00:10;100024.13;;;17.84;97.45
15750;BME280;7976;52.526;13.326;2023-08-06T07:02:37;100029.41;;;17.84;97.19
15750;BME280;7976;52.526;13.326;2023-08-06T07:05:05;100033.97;;;17.82;97.50
15750;BME280;7976;52.526;13.326;2023-08-06T07:07:33;100033.97;;;17.82;97.42
15750;BME280;7976;52.526;13.326;2023-08-06T07:10:01;100035.56;;;17.84;97.71
15750;BME280;7976;52.526;13.326;2023-08-06T07:12:28;100036.19;;;17.88;97.13
15750;BME280;7976;52.526;13.326;2023-08-06T07:14:54;100034.25;;;17.90;97.11
15750;BME280;7976;52.526;13.326;2023-08-06T07:17:23;100044.59;;;17.93;96.78
15750;BME280;7976;52.526;13.326;2023-08-06T07:19:49;100039.31;;;17.93;96.56
15750;BME280;7976;52.526;13.326;2023-08-06T07:22:16;100035.69;;;17.94;96.91
15750;BME280;7976;52.526;13.326;2023-08-06T07:24:43;100039.06;;;17.96;96.37
15750;BME280;7976;52.526;13.326;2023-08-06T07:27:10;100039.06;;;17.96;96.64
15750;BME280;7976;52.526;13.326;2023-08-06T07:29:37;100042.44;;;17.98;96.58
15750;BME280;7976;52.526;13.326;2023-08-06T07:32:06;100041.31;;;18.00;96.06
15750;BME280;7976;52.526;13.326;2023-08-06T07:34:34;100035.22;;;18.00;95.68
15750;BME280;7976;52.526;13.326;2023-08-06T07:37:01;100040.50;;;18.00;95.73
15750;BME280;7976;52.526;13.326;2023-08-06T07:39:28;100035.22;;;18.00;95.75
15750;BME280;7976;52.526;13.326;2023-08-06T07:41:55;100034.97;;;18.03;95.82
15750;BME280;7976;52.526;13.326;2023-08-06T07:44:22;100029.66;;;18.03;96.17
15750;BME280;7976;52.526;13.326;2023-08-06T07:46:49;100040.00;;;18.06;95.90
15750;BME280;7976;52.526;13.326;2023-08-06T07:49:16;100029.16;;;18.09;95.73
15750;BME280;7976;52.526;13.326;2023-08-06T07:51:44;100027.38;;;18.09;95.70
15750;BME280;7976;52.526;13.326;2023-08-06T07:54:11;100033.28;;;18.13;95.66
15750;BME280;7976;52.526;13.326;2023-08-06T07:56:38;100028.44;;;18.18;95.76
15750;BME280;7976;52.526;13.326;2023-08-06T07:59:05;100034.47;;;18.20;95.86
15750;BME280;7976;52.526;13.326;2023-08-06T08:01:32;100029.03;;;18.21;95.76
15750;BME280;7976;52.526;13.326;2023-08-06T08:03:59;100029.91;;;18.22;95.61
15750;BME280;7976;52.526;13.326;2023-08-06T08:06:26;100032.28;;;18.25;95.93
15750;BME280;7976;52.526;13.326;2023-08-06T08:08:54;100028.53;;;18.27;95.66
15750;BME280;7976;52.526;13.326;2023-08-06T08:11:21;100029.41;;;18.28;95.28
15750;BME280;7976;52.526;13.326;2023-08-06T08:13:48;100029.41;;;18.28;95.34
15750;BME280;7976;52.526;13.326;2023-08-06T08:16:14;100026.75;;;18.28;95.14
15750;BME280;7976;52.526;13.326;2023-08-06T08:18:41;100022.28;;;18.28;95.19
15750;BME280;7976;52.526;13.326;2023-08-06T08:21:08;100017.69;;;18.30;95.64
15750;BME280;7976;52.526;13.326;2023-08-06T08:23:35;100015.63;;;18.34;95.57
15750;BME280;7976;52.526;13.326;2023-08-06T08:26:03;100015.41;;;18.37;95.62
15750;BME280;7976;52.526;13.326;2023-08-06T08:28:30;100011.91;;;18.36;95.63
15750;BME280;7976;52.526;13.326;2023-08-06T08:30:57;100004.81;;;18.37;95.47
15750;BME280;7976;52.526;13.326;2023-08-06T08:33:24;100009.13;;;18.38;95.57
15750;BME280;7976;52.526;13.326;2023-08-06T08:35:51;99999.50;;;18.37;95.27
15750;BME280;7976;52.526;13.326;2023-08-06T08:38:17;99994.22;;;18.37;95.41
15750;BME280;7976;52.526;13.326;2023-08-06T08:40:46;99999.28;;;18.40;95.84
15750;BME280;7976;52.526;13.326;2023-08-06T08:43:21;99991.22;;;18.41;95.36
15750;BME280;7976;52.526;13.326;2023-08-06T08:45:51;99994.72;;;18.42;95.38
15750;BME280;7976;52.526;13.326;2023-08-06T08:48:19;99989.41;;;18.42;95.75
15750;BME280;7976;52.526;13.326;2023-08-06T08:50:48;99984.13;;;18.42;96.07
15750;BME280;7976;52.526;13.326;2023-08-06T08:53:17;99983.13;;;18.43;96.09
15750;BME280;7976;52.526;13.326;2023-08-06T08:55:46;99977.97;;;18.41;96.37
15750;BME280;7976;52.526;13.326;2023-08-06T08:58:14;99979.63;;;18.42;96.39
15750;BME280;7976;52.526;13.326;2023-08-06T09:00:43;99978.09;;;18.40;96.16
15750;BME280;7976;52.526;13.326;2023-08-06T09:03:12;99968.41;;;18.39;96.18
15750;BME280;7976;52.526;13.326;2023-08-06T09:05:44;99965.06;;;18.37;96.37
15750;BME280;7976;52.526;13.326;2023-08-06T09:08:15;99965.06;;;18.37;96.25
15750;BME280;7976;52.526;13.326;2023-08-06T09:10:44;99961.56;;;18.36;96.35
15750;BME280;7976;52.526;13.326;2023-08-06T09:13:12;99957.13;;;18.37;97.04
15750;BME280;7976;52.526;13.326;2023-08-06T09:15:39;99952.50;;;18.39;96.85
15750;BME280;7976;52.526;13.326;2023-08-06T09:18:11;99953.25;;;18.41;97.05
15750;BME280;7976;52.526;13.326;2023-08-06T09:20:39;99945.66;;;18.47;97.14
15750;BME280;7976;52.526;13.326;2023-08-06T09:23:07;99951.53;;;18.51;96.72
15750;BME280;7976;52.526;13.326;2023-08-06T09:25:38;99944.31;;;18.53;97.00
15750;BME280;7976;52.526;13.326;2023-08-06T09:28:06;99945.03;;;18.55;96.74
15750;BME280;7976;52.526;13.326;2023-08-06T09:30:35;99940.31;;;18.58;96.76
15750;BME280;7976;52.526;13.326;2023-08-06T09:33:03;99942.84;;;18.60;96.47
15750;BME280;7976;52.526;13.326;2023-08-06T09:35:32;99941.00;;;18.60;96.66
15750;BME280;7976;52.526;13.326;2023-08-06T09:38:06;99935.69;;;18.60;96.99
15750;BME280;7976;52.526;13.326;2023-08-06T09:40:34;99933.91;;;18.61;96.95
15750;BME280;7976;52.526;13.326;2023-08-06T09:43:01;99930.41;;;18.60;96.80
15750;BME280;7976;52.526;13.326;2023-08-06T09:45:31;99927.66;;;18.62;97.02
15750;BME280;7976;52.526;13.326;2023-08-06T09:47:59;99922.81;;;18.67;96.58
15750;BME280;7976;52.526;13.326;2023-08-06T09:50:31;99917.81;;;18.73;96.40
15750;BME280;7976;52.526;13.326;2023-08-06T09:52:59;99918.41;;;18.77;96.21
15750;BME280;7976;52.526;13.326;2023-08-06T09:55:26;99919.94;;;18.80;96.53
15750;BME280;7976;52.526;13.326;2023-08-06T09:57:54;99910.91;;;18.82;96.33
15750;BME280;7976;52.526;13.326;2023-08-06T10:00:22;99911.59;;;18.84;96.01
15750;BME280;7976;52.526;13.326;2023-08-06T10:02:49;99911.16;;;18.79;95.95
15750;BME280;7976;52.526;13.326;2023-08-06T10:05:21;99911.94;;;18.70;95.80
15750;BME280;7976;52.526;13.326;2023-08-06T10:07:50;99905.59;;;18.61;95.79
15750;BME280;7976;52.526;13.326;2023-08-06T10:10:17;99903.22;;;18.58;96.36
15750;BME280;7976;52.526;13.326;2023-08-06T10:12:49;99905.53;;;18.52;95.99
15750;BME280;7976;52.526;13.326;2023-08-06T10:15:20;99901.56;;;18.46;96.47
15750;BME280;7976;52.526;13.326;2023-08-06T10:17:51;99901.25;;;18.40;96.72
15750;BME280;7976;52.526;13.326;2023-08-06T10:20:19;99897.63;;;18.30;96.57
15750;BME280;7976;52.526;13.326;2023-08-06T10:23:01;99898.00;;;18.25;97.47
15750;BME280;7976;52.526;13.326;2023-08-06T10:25:31;99899.97;;;18.23;97.31
15750;BME280;7976;52.526;13.326;2023-08-06T10:27:59;99883.47;;;18.20;97.63
15750;BME280;7976;52.526;13.326;2023-08-06T10:30:29;99897.78;;;18.17;98.35
15750;BME280;7976;52.526;13.326;2023-08-06T10:32:58;99890.81;;;18.16;98.76
15750;BME280;7976;52.526;13.326;2023-08-06T10:35:37;99894.31;;;18.17;99.10
15750;BME280;7976;52.526;13.326;2023-08-06T10:38:08;99892.38;;;18.19;99.18
15750;BME280;7976;52.526;13.326;2023-08-06T10:40:36;99901.03;;;18.21;99.69
15750;BME280;7976;52.526;13.326;2023-08-06T10:43:04;99892.13;;;18.22;99.90
15750;BME280;7976;52.526;13.326;2023-08-06T10:45:35;99892.13;;;18.22;99.86
15750;BME280;7976;52.526;13.326;2023-08-06T10:48:03;99892.50;;;18.17;99.97
15750;BME280;7976;52.526;13.326;2023-08-06T10:50:31;99891.22;;;18.12;100.00
15750;BME280;7976;52.526;13.326;2023-08-06T10:53:06;99882.09;;;18.05;100.00
15750;BME280;7976;52.526;13.326;2023-08-06T10:55:34;99880.63;;;18.01;100.00
15750;BME280;7976;52.526;13.326;2023-08-06T10:58:04;99881.63;;;18.00;100.00
15750;BME280;7976;52.526;13.326;2023-08-06T11:00:31;99872.22;;;17.96;100.00
15750;BME280;7976;52.526;13.326;2023-08-06T11:02:58;99869.69;;;17.94;100.00
15750;BME280;7976;52.526;13.326;2023-08-06T11:05:25;99875.13;;;17.93;100.00
15750;BME280;7976;52.526;13.326;2023-08-06T11:07:53;99865.88;;;17.87;100.00
15750;BME280;7976;52.526;13.326;2023-08-06T11:10:21;99867.66;;;17.87;100.00
15750;BME280;7976;52.526;13.326;2023-08-06T11:12:49;99867.66;;;17.87;100.00
15750;BME280;7976;52.526;13.326;2023-08-06T11:15:16;99862.38;;;17.87;100.00
15750;BME280;7976;52.526;13.326;2023-08-06T11:17:47;99854.44;;;17.87;100.00
15750;BME280;7976;52.526;13.326;2023-08-06T11:20:14;99857.78;;;17.89;100.00
15750;BME280;7976;52.526;13.326;2023-08-06T11:22:42;99850.56;;;17.91;100.00
15750;BME280;7976;52.526;13.326;2023-08-06T11:25:09;99846.94;;;17.92;100.00
15750;BME280;7976;52.526;13.326;2023-08-06T11:27:37;99843.34;;;17.93;100.00
15750;BME280;7976;52.526;13.326;2023-08-06T11:30:06;99848.78;;;17.91;100.00
15750;BME280;7976;52.526;13.326;2023-08-06T11:32:33;99846.25;;;17.90;100.00
15750;BME280;7976;52.526;13.326;2023-08-06T11:35:10;99841.19;;;17.87;100.00
15750;BME280;7976;52.526;13.326;2023-08-06T11:37:43;99839.06;;;17.81;100.00
15750;BME280;7976;52.526;13.326;2023-08-06T11:40:13;99831.84;;;17.72;100.00
15750;BME280;7976;52.526;13.326;2023-08-06T11:42:43;99828.63;;;17.68;100.00
15750;BME280;7976;52.526;13.326;2023-08-06T11:45:11;99827.06;;;17.66;99.97
15750;BME280;7976;52.526;13.326;2023-08-06T11:47:39;99827.31;;;17.63;99.82
15750;BME280;7976;52.526;13.326;2023-08-06T11:50:07;99817.69;;;17.62;99.85
15750;BME280;7976;52.526;13.326;2023-08-06T11:52:39;99803.75;;;17.60;100.00
15750;BME280;7976;52.526;13.326;2023-08-06T11:55:07;99812.16;;;17.65;100.00
15750;BME280;7976;52.526;13.326;2023-08-06T11:57:37;99807.56;;;17.67;100.00
15750;BME280;7976;52.526;13.326;2023-08-06T12:00:10;99809.97;;;17.70;100.00
15750;BME280;7976;52.526;13.326;2023-08-06T12:02:45;99810.56;;;17.73;100.00
15750;BME280;7976;52.526;13.326;2023-08-06T12:05:14;99806.09;;;17.74;100.00
15750;BME280;7976;52.526;13.326;2023-08-06T12:07:43;99801.66;;;17.74;100.00
15750;BME280;7976;52.526;13.326;2023-08-06T12:10:12;99800.69;;;17.75;100.00
15750;BME280;7976;52.526;13.326;2023-08-06T12:12:39;99798.63;;;17.79;100.00
15750;BME280;7976;52.526;13.326;2023-08-06T12:15:09;99794.03;;;17.81;100.00
15750;BME280;7976;52.526;13.326;2023-08-06T12:17:38;99800.31;;;17.80;100.00
15750;BME280;7976;52.526;13.326;2023-08-06T12:20:07;99796.94;;;17.78;100.00
15750;BME280;7976;52.526;13.326;2023-08-06T12:22:35;99795.97;;;17.79;100.00
15750;BME280;7976;52.526;13.326;2023-08-06T12:25:06;99799.47;;;17.79;100.00
15750;BME280;7976;52.526;13.326;2023-08-06T12:27:34;99801.72;;;17.84;100.00
15750;BME280;7976;52.526;13.326;2023-08-06T12:30:02;99797.03;;;17.87;100.00
15750;BME280;7976;52.526;13.326;2023-08-06T12:32:32;99802.19;;;17.89;100.00
15750;BME280;7976;52.526;13.326;2023-08-06T12:34:59;99805.69;;;17.89;100.00
15750;BME280;7976;52.526;13.326;2023-08-06T12:37:28;99790.66;;;17.90;100.00
15750;BME280;7976;52.526;13.326;2023-08-06T12:39:55;99802.53;;;17.95;100.00
15750;BME280;7976;52.526;13.326;2023-08-06T12:42:22;99793.50;;;17.98;100.00
15750;BME280;7976;52.526;13.326;2023-08-06T12:44:50;99800.72;;;17.96;100.00
15750;BME280;7976;52.526;13.326;2023-08-06T12:47:18;99803.13;;;17.99;100.00
15750;BME280;7976;52.526;13.326;2023-08-06T12:49:47;99800.25;;;18.02;100.00
15750;BME280;7976;52.526;13.326;2023-08-06T12:52:15;99800.25;;;18.02;100.00
15750;BME280;7976;52.526;13.326;2023-08-06T12:54:42;99801.91;;;18.03;100.00
15750;BME280;7976;52.526;13.326;2023-08-06T12:57:11;99796.63;;;18.03;100.00
15750;BME280;7976;52.526;13.326;2023-08-06T12:59:38;99800.94;;;18.04;100.00